TimeCDT,TemperatureF,Dew PointF,Humidity,Sea Level PressureIn,VisibilityMPH,Wind Direction,Wind SpeedMPH,Gust SpeedMPH,PrecipitationIn,Events,Conditions,WindDirDegrees,DateUTC
12:53 AM,26.1,19.9,78,30.15,10.0,NW,8.1,-,N/A,,Mostly Cloudy,320,2013-03-24 05:53:00
1:53 AM,26.1,19.0,75,30.14,10.0,NW,6.9,-,N/A,,Overcast,320,2013-03-24 06:53:00
2:53 AM,24.1,19.0,81,30.14,10.0,NW,5.8,-,N/A,,Overcast,310,2013-03-24 07:53:00
3:53 AM,25.0,18.0,75,30.13,10.0,NNW,3.5,-,N/A,,Overcast,330,2013-03-24 08:53:00
4:53 AM,24.1,18.0,77,30.12,10.0,NNW,3.5,-,N/A,,Overcast,330,2013-03-24 09:53:00
5:53 AM,24.1,18.0,77,30.12,10.0,Calm,Calm,-,N/A,,Overcast,0,2013-03-24 10:53:00
6:53 AM,24.1,19.0,81,30.13,10.0,North,3.5,-,N/A,,Overcast,350,2013-03-24 11:53:00
7:41 AM,24.8,19.4,80,30.07,1.8,Calm,Calm,-,0.00,Snow,Light Snow,0,2013-03-24 12:41:00
7:51 AM,24.8,21.2,86,30.07,0.8,Calm,Calm,-,0.00,Snow,Light Snow,0,2013-03-24 12:51:00
7:53 AM,25.0,21.0,85,30.14,0.8,NNE,3.5,-,0.00,Snow,Light Snow,30,2013-03-24 12:53:00
8:08 AM,24.8,23.0,93,30.07,1.0,ENE,3.5,-,0.01,Snow,Light Snow,60,2013-03-24 13:08:00
8:23 AM,26.6,23.0,86,30.06,0.5,ENE,5.8,-,0.01,Fog-Snow,Snow,70,2013-03-24 13:23:00
8:40 AM,26.6,21.2,80,30.06,1.2,ENE,5.8,-,0.02,Snow,Light Snow,70,2013-03-24 13:40:00
8:47 AM,26.6,21.2,80,30.06,2.5,ENE,5.8,-,0.02,Snow,Light Snow,70,2013-03-24 13:47:00
8:53 AM,26.1,21.9,84,30.13,2.5,ENE,6.9,-,0.02,Snow,Light Snow,60,2013-03-24 13:53:00
9:04 AM,26.6,21.2,80,30.06,1.8,ENE,4.6,-,0.00,Snow,Light Snow,60,2013-03-24 14:04:00
9:12 AM,26.6,21.2,80,30.06,2.0,NE,4.6,-,0.00,Snow,Light Snow,50,2013-03-24 14:12:00
9:29 AM,26.6,21.2,80,30.06,3.0,NE,6.9,-,0.00,,Haze,40,2013-03-24 14:29:00
9:38 AM,26.6,21.2,80,30.06,2.0,NE,5.8,-,0.00,Snow,Light Snow,40,2013-03-24 14:38:00
9:53 AM,27.0,21.0,78,30.13,7.0,Variable,5.8,-,0.00,Snow,Light Snow,0,2013-03-24 14:53:00
10:53 AM,28.9,18.0,64,30.12,10.0,ENE,13.8,-,N/A,,Partly Cloudy,60,2013-03-24 15:53:00
11:53 AM,30.0,19.0,64,30.11,10.0,NNE,6.9,-,N/A,,Partly Cloudy,30,2013-03-24 16:53:00
12:53 PM,32.0,19.0,59,30.10,10.0,NE,10.4,-,N/A,,Mostly Cloudy,40,2013-03-24 17:53:00
1:00 PM,32.0,19.4,60,30.03,10.0,NE,11.5,19.6,N/A,,Mostly Cloudy,50,2013-03-24 18:00:00
1:53 PM,32.0,19.0,59,30.10,10.0,NNE,5.8,17.3,N/A,,Overcast,30,2013-03-24 18:53:00
2:53 PM,32.0,18.0,56,30.09,10.0,NNE,8.1,-,N/A,,Overcast,30,2013-03-24 19:53:00
3:53 PM,32.0,19.0,59,30.07,10.0,NE,10.4,-,N/A,,Overcast,40,2013-03-24 20:53:00
4:53 PM,32.0,18.0,56,30.07,10.0,NNE,12.7,-,N/A,,Overcast,20,2013-03-24 21:53:00
5:53 PM,32.0,19.9,61,30.07,10.0,North,11.5,-,N/A,,Overcast,360,2013-03-24 22:53:00
6:53 PM,30.9,21.0,67,30.08,10.0,North,9.2,-,N/A,,Overcast,360,2013-03-24 23:53:00
7:53 PM,28.9,21.0,72,30.09,10.0,North,4.6,-,N/A,,Overcast,360,2013-03-25 00:53:00
8:53 PM,30.0,21.9,72,30.11,10.0,North,4.6,-,N/A,,Overcast,360,2013-03-25 01:53:00
9:53 PM,30.0,21.9,72,30.12,10.0,North,5.8,-,N/A,,Overcast,10,2013-03-25 02:53:00
10:53 PM,28.9,21.0,72,30.12,10.0,NNE,6.9,-,N/A,,Overcast,20,2013-03-25 03:53:00
11:53 PM,28.9,19.0,67,30.13,10.0,North,12.7,17.3,N/A,,Overcast,10,2013-03-25 04:53:00